Albany, Nebraska
Current Conditions -  °F | °C
As of 9:15 PM on Saturday 20 Dec 2014 (Local Time) from KHDE Reporting Station
Clear Clear  
Wind Chill: 30°   Ceiling: Unl
Heat Index: 35°   Visibility: 10mi
Dew Point: 30°   Wind: 6mph
Humidity: 84%   Direction: 210°SSW
Pressure: 29.94"   Gusts: NA
Location:  40.2849°N, 99.6171°W
Report Text: KHDE 210315Z AUTO 21005KT 10SM CLR 02/M01 A2994 RMK AO2 T00151010
Loading
Personal Weather Stations






























Interactive Weather Map New forecast layout! Learn more

10-Day Weather Forecast

Advertisements
Track Severe Weather on mobile